sensor_id;sensor_type;location;lat;lon;timestamp;pressure;altitude;pressure_sealevel;temperature;humidity
69911;BME280;63555;49.920;17.868;2023-05-13T00:00:39;99007.44;;;9.79;69.09
69911;BME280;63555;49.920;17.868;2023-05-13T00:05:39;98999.22;;;9.83;68.78
69911;BME280;63555;49.920;17.868;2023-05-13T00:10:40;98998.28;;;9.84;69.10
69911;BME280;63555;49.920;17.868;2023-05-13T00:15:40;99001.03;;;9.83;69.16
69911;BME280;63555;49.920;17.868;2023-05-13T00:20:41;98995.03;;;9.81;69.41
69911;BME280;63555;49.920;17.868;2023-05-13T00:25:41;98987.13;;;9.81;70.27
69911;BME280;63555;49.920;17.868;2023-05-13T00:30:43;99006.28;;;9.96;70.13
69911;BME280;63555;49.920;17.868;2023-05-13T00:35:45;99000.59;;;10.02;69.92
69911;BME280;63555;49.920;17.868;2023-05-13T00:40:45;98998.59;;;10.05;69.76
69911;BME280;63555;49.920;17.868;2023-05-13T00:45:46;99001.00;;;10.08;69.67
69911;BME280;63555;49.920;17.868;2023-05-13T00:50:47;98996.47;;;10.10;69.77
69911;BME280;63555;49.920;17.868;2023-05-13T00:55:47;99002.59;;;10.11;69.86
69911;BME280;63555;49.920;17.868;2023-05-13T01:01:00;99007.84;;;10.11;69.89
69911;BME280;63555;49.920;17.868;2023-05-13T01:11:31;99015.03;;;10.09;69.74
69911;BME280;63555;49.920;17.868;2023-05-13T01:16:48;99008.19;;;10.06;69.66
69911;BME280;63555;49.920;17.868;2023-05-13T01:21:52;99011.44;;;9.97;69.96
69911;BME280;63555;49.920;17.868;2023-05-13T01:26:54;99015.66;;;9.87;70.23
69911;BME280;63555;49.920;17.868;2023-05-13T01:31:55;99016.09;;;9.81;70.26
69911;BME280;63555;49.920;17.868;2023-05-13T01:36:58;99012.94;;;9.76;70.41
69911;BME280;63555;49.920;17.868;2023-05-13T01:41:58;99010.72;;;9.70;70.53
69911;BME280;63555;49.920;17.868;2023-05-13T01:46:59;99022.59;;;9.63;70.80
69911;BME280;63555;49.920;17.868;2023-05-13T01:51:59;99014.19;;;9.57;71.18
69911;BME280;63555;49.920;17.868;2023-05-13T01:57:00;99012.78;;;9.52;71.40
69911;BME280;63555;49.920;17.868;2023-05-13T02:02:00;99023.50;;;9.49;71.44
69911;BME280;63555;49.920;17.868;2023-05-13T02:07:00;99020.97;;;9.47;71.62
69911;BME280;63555;49.920;17.868;2023-05-13T02:12:01;99026.53;;;9.43;71.49
69911;BME280;63555;49.920;17.868;2023-05-13T02:17:01;99024.31;;;9.37;71.60
69911;BME280;63555;49.920;17.868;2023-05-13T02:22:02;99028.00;;;9.34;71.92
69911;BME280;63555;49.920;17.868;2023-05-13T02:27:03;99027.25;;;9.32;71.89
69911;BME280;63555;49.920;17.868;2023-05-13T02:32:03;99024.94;;;9.27;72.23
69911;BME280;63555;49.920;17.868;2023-05-13T02:37:04;99025.97;;;9.25;71.88
69911;BME280;63555;49.920;17.868;2023-05-13T02:42:04;99024.81;;;9.16;72.56
69911;BME280;63555;49.920;17.868;2023-05-13T02:47:05;99033.94;;;9.11;72.59
69911;BME280;63555;49.920;17.868;2023-05-13T02:52:05;99032.44;;;9.07;72.79
69911;BME280;63555;49.920;17.868;2023-05-13T02:57:06;99038.94;;;9.01;73.29
69911;BME280;63555;49.920;17.868;2023-05-13T03:02:06;99035.47;;;9.01;72.84
69911;BME280;63555;49.920;17.868;2023-05-13T03:07:06;99040.63;;;9.02;72.72
69911;BME280;63555;49.920;17.868;2023-05-13T03:12:07;99038.00;;;9.02;73.53
69911;BME280;63555;49.920;17.868;2023-05-13T03:17:08;99039.69;;;9.03;73.47
69911;BME280;63555;49.920;17.868;2023-05-13T03:22:09;99038.66;;;9.06;73.43
69911;BME280;63555;49.920;17.868;2023-05-13T03:27:09;99049.91;;;9.08;73.06
69911;BME280;63555;49.920;17.868;2023-05-13T03:32:10;99050.03;;;9.06;73.63
69911;BME280;63555;49.920;17.868;2023-05-13T03:37:10;99056.13;;;9.07;73.12
69911;BME280;63555;49.920;17.868;2023-05-13T03:42:10;99057.72;;;9.09;73.43
69911;BME280;63555;49.920;17.868;2023-05-13T03:47:11;99061.00;;;9.13;73.74
69911;BME280;63555;49.920;17.868;2023-05-13T03:52:11;99065.94;;;9.17;73.38
69911;BME280;63555;49.920;17.868;2023-05-13T03:57:11;99069.97;;;9.23;73.18
69911;BME280;63555;49.920;17.868;2023-05-13T04:02:12;99080.00;;;9.31;73.36
69911;BME280;63555;49.920;17.868;2023-05-13T04:07:12;99079.69;;;9.35;73.33
69911;BME280;63555;49.920;17.868;2023-05-13T04:12:12;99080.13;;;9.42;73.37
69911;BME280;63555;49.920;17.868;2023-05-13T04:17:14;99083.94;;;9.50;73.57
69911;BME280;63555;49.920;17.868;2023-05-13T04:22:15;99095.78;;;9.57;73.82
69911;BME280;63555;49.920;17.868;2023-05-13T04:27:15;99098.66;;;9.67;73.61
69911;BME280;63555;49.920;17.868;2023-05-13T04:32:15;99097.09;;;9.77;73.26
69911;BME280;63555;49.920;17.868;2023-05-13T04:37:20;99110.28;;;9.90;73.58
69911;BME280;63555;49.920;17.868;2023-05-13T04:42:20;99112.09;;;10.02;73.41
69911;BME280;63555;49.920;17.868;2023-05-13T04:47:21;99113.69;;;10.17;73.30
69911;BME280;63555;49.920;17.868;2023-05-13T04:52:21;99111.50;;;10.37;73.24
69911;BME280;63555;49.920;17.868;2023-05-13T04:57:22;99111.72;;;10.59;73.06
69911;BME280;63555;49.920;17.868;2023-05-13T05:02:22;99118.22;;;10.79;72.45
69911;BME280;63555;49.920;17.868;2023-05-13T05:07:22;99119.88;;;10.93;72.90
69911;BME280;63555;49.920;17.868;2023-05-13T05:12:23;99128.06;;;11.13;72.68
69911;BME280;63555;49.920;17.868;2023-05-13T05:17:23;99137.28;;;11.44;72.60
69911;BME280;63555;49.920;17.868;2023-05-13T05:22:25;99140.00;;;11.67;71.59
69911;BME280;63555;49.920;17.868;2023-05-13T05:27:25;99133.88;;;11.90;71.61
69911;BME280;63555;49.920;17.868;2023-05-13T05:32:26;99147.56;;;12.19;71.00
69911;BME280;63555;49.920;17.868;2023-05-13T05:37:28;99149.06;;;12.46;70.86
69911;BME280;63555;49.920;17.868;2023-05-13T05:42:28;99150.28;;;12.86;69.65
69911;BME280;63555;49.920;17.868;2023-05-13T05:47:29;99148.84;;;13.16;69.12
69911;BME280;63555;49.920;17.868;2023-05-13T05:52:29;99155.44;;;13.44;68.75
69911;BME280;63555;49.920;17.868;2023-05-13T05:57:29;99149.34;;;13.64;68.19
69911;BME280;63555;49.920;17.868;2023-05-13T06:02:30;99149.63;;;13.93;67.78
69911;BME280;63555;49.920;17.868;2023-05-13T06:07:30;99148.69;;;14.15;67.51
69911;BME280;63555;49.920;17.868;2023-05-13T06:12:30;99151.41;;;14.45;67.20
69911;BME280;63555;49.920;17.868;2023-05-13T06:17:31;99154.59;;;14.90;66.54
69911;BME280;63555;49.920;17.868;2023-05-13T06:22:32;99153.50;;;15.43;65.47
69911;BME280;63555;49.920;17.868;2023-05-13T06:27:32;99150.50;;;15.86;64.26
69911;BME280;63555;49.920;17.868;2023-05-13T06:32:33;99151.19;;;16.17;63.56
69911;BME280;63555;49.920;17.868;2023-05-13T06:37:33;99151.72;;;16.40;62.71
69911;BME280;63555;49.920;17.868;2023-05-13T06:42:33;99148.94;;;16.98;61.74
69911;BME280;63555;49.920;17.868;2023-05-13T06:47:39;99146.09;;;17.36;60.40
69911;BME280;63555;49.920;17.868;2023-05-13T06:52:39;99147.59;;;17.66;59.42
69911;BME280;63555;49.920;17.868;2023-05-13T06:57:40;99147.91;;;17.81;58.85
69911;BME280;63555;49.920;17.868;2023-05-13T07:02:42;99148.91;;;17.80;58.06
69911;BME280;63555;49.920;17.868;2023-05-13T07:07:42;99147.53;;;17.76;57.68
69911;BME280;63555;49.920;17.868;2023-05-13T07:12:43;99150.50;;;17.91;56.52
69911;BME280;63555;49.920;17.868;2023-05-13T07:17:43;99143.78;;;18.22;55.94
69911;BME280;63555;49.920;17.868;2023-05-13T07:22:43;99144.94;;;18.63;54.42
69911;BME280;63555;49.920;17.868;2023-05-13T07:27:44;99138.03;;;18.35;54.12
69911;BME280;63555;49.920;17.868;2023-05-13T07:32:44;99138.53;;;17.95;54.14
69911;BME280;63555;49.920;17.868;2023-05-13T07:37:45;99145.63;;;17.68;54.20
69911;BME280;63555;49.920;17.868;2023-05-13T07:42:45;99137.34;;;17.44;54.37
69911;BME280;63555;49.920;17.868;2023-05-13T07:47:46;99139.94;;;17.26;54.48
69911;BME280;63555;49.920;17.868;2023-05-13T07:52:46;99136.34;;;17.17;54.55
69911;BME280;63555;49.920;17.868;2023-05-13T07:57:48;99139.66;;;17.29;54.47
69911;BME280;63555;49.920;17.868;2023-05-13T08:02:48;99136.13;;;17.56;53.82
69911;BME280;63555;49.920;17.868;2023-05-13T08:07:49;99139.38;;;17.95;53.08
69911;BME280;63555;49.920;17.868;2023-05-13T08:12:49;99144.38;;;18.34;52.11
69911;BME280;63555;49.920;17.868;2023-05-13T08:17:53;99141.72;;;18.60;51.33
69911;BME280;63555;49.920;17.868;2023-05-13T08:22:55;99144.66;;;18.74;50.64
69911;BME280;63555;49.920;17.868;2023-05-13T08:27:56;99139.66;;;19.05;49.68
69911;BME280;63555;49.920;17.868;2023-05-13T08:32:56;99135.53;;;19.69;48.20
69911;BME280;63555;49.920;17.868;2023-05-13T08:37:56;99132.59;;;20.05;46.58
69911;BME280;63555;49.920;17.868;2023-05-13T08:42:59;99137.59;;;20.00;46.06
69911;BME280;63555;49.920;17.868;2023-05-13T08:48:01;99133.53;;;19.80;46.57
69911;BME280;63555;49.920;17.868;2023-05-13T08:53:02;99143.06;;;19.66;47.16
69911;BME280;63555;49.920;17.868;2023-05-13T08:58:03;99144.41;;;19.70;47.21
69911;BME280;63555;49.920;17.868;2023-05-13T09:03:04;99139.59;;;19.90;46.99
69911;BME280;63555;49.920;17.868;2023-05-13T09:08:07;99141.47;;;20.06;46.85
69911;BME280;63555;49.920;17.868;2023-05-13T09:13:10;99144.47;;;20.51;46.25
69911;BME280;63555;49.920;17.868;2023-05-13T09:18:15;99135.34;;;20.93;44.88
69911;BME280;63555;49.920;17.868;2023-05-13T09:23:16;99131.78;;;21.48;43.80
69911;BME280;63555;49.920;17.868;2023-05-13T09:28:16;99136.19;;;21.94;43.07
69911;BME280;63555;49.920;17.868;2023-05-13T09:33:17;99141.75;;;22.53;42.63
69911;BME280;63555;49.920;17.868;2023-05-13T09:38:24;99136.09;;;22.86;40.62
69911;BME280;63555;49.920;17.868;2023-05-13T09:43:26;99136.81;;;22.95;39.69
69911;BME280;63555;49.920;17.868;2023-05-13T09:48:29;99136.19;;;22.93;38.64
69911;BME280;63555;49.920;17.868;2023-05-13T09:53:33;99129.66;;;22.72;37.89
69911;BME280;63555;49.920;17.868;2023-05-13T09:58:33;99129.69;;;22.87;37.08
69911;BME280;63555;49.920;17.868;2023-05-13T10:03:35;99136.16;;;23.22;36.44
69911;BME280;63555;49.920;17.868;2023-05-13T10:08:36;99137.91;;;23.59;36.13
69911;BME280;63555;49.920;17.868;2023-05-13T10:13:38;99124.22;;;24.25;34.61
69911;BME280;63555;49.920;17.868;2023-05-13T10:18:38;99122.00;;;24.50;34.75
69911;BME280;63555;49.920;17.868;2023-05-13T10:23:39;99114.81;;;25.26;34.26
69911;BME280;63555;49.920;17.868;2023-05-13T10:28:39;99108.19;;;26.02;33.65
69911;BME280;63555;49.920;17.868;2023-05-13T10:33:45;99112.72;;;26.94;32.94
69911;BME280;63555;49.920;17.868;2023-05-13T10:43:56;99107.06;;;29.16;30.59
69911;BME280;63555;49.920;17.868;2023-05-13T10:48:58;99109.31;;;29.98;30.11
69911;BME280;63555;49.920;17.868;2023-05-13T10:53:59;99108.06;;;30.77;28.19
69911;BME280;63555;49.920;17.868;2023-05-13T10:59:00;99109.03;;;31.46;27.78
69911;BME280;63555;49.920;17.868;2023-05-13T11:04:03;99108.94;;;31.70;26.78
69911;BME280;63555;49.920;17.868;2023-05-13T11:09:05;99111.44;;;31.31;27.36
69911;BME280;63555;49.920;17.868;2023-05-13T11:24:21;99120.19;;;27.19;29.79
69911;BME280;63555;49.920;17.868;2023-05-13T11:29:33;99126.72;;;25.45;31.65
69911;BME280;63555;49.920;17.868;2023-05-13T11:34:33;99126.13;;;24.03;32.98
69911;BME280;63555;49.920;17.868;2023-05-13T11:39:35;99118.09;;;22.86;34.51
69911;BME280;63555;49.920;17.868;2023-05-13T11:44:44;99122.75;;;21.94;35.76
69911;BME280;63555;49.920;17.868;2023-05-13T11:49:46;99123.84;;;21.23;36.77
69911;BME280;63555;49.920;17.868;2023-05-13T11:54:54;99134.69;;;20.75;38.03
69911;BME280;63555;49.920;17.868;2023-05-13T12:00:13;99121.88;;;20.46;38.44
69911;BME280;63555;49.920;17.868;2023-05-13T12:05:14;99131.41;;;20.16;38.65
69911;BME280;63555;49.920;17.868;2023-05-13T12:10:14;99141.28;;;20.15;39.03
69911;BME280;63555;49.920;17.868;2023-05-13T12:15:16;99133.09;;;20.17;39.33
69911;BME280;63555;49.920;17.868;2023-05-13T12:20:21;99133.94;;;20.09;39.48
69911;BME280;63555;49.920;17.868;2023-05-13T12:25:36;99131.25;;;20.09;39.97
69911;BME280;63555;49.920;17.868;2023-05-13T12:30:41;99141.78;;;20.11;39.69
69911;BME280;63555;49.920;17.868;2023-05-13T12:35:43;99137.44;;;20.10;39.81
69911;BME280;63555;49.920;17.868;2023-05-13T12:40:45;99142.97;;;20.00;40.34
69911;BME280;63555;49.920;17.868;2023-05-13T12:45:46;99145.97;;;19.97;40.25
69911;BME280;63555;49.920;17.868;2023-05-13T12:50:47;99142.97;;;20.00;40.80
69911;BME280;63555;49.920;17.868;2023-05-13T12:55:47;99146.31;;;20.18;40.67
69911;BME280;63555;49.920;17.868;2023-05-13T13:00:47;99141.28;;;20.15;40.74
69911;BME280;63555;49.920;17.868;2023-05-13T13:05:48;99136.78;;;20.08;40.79
69911;BME280;63555;49.920;17.868;2023-05-13T13:10:48;99137.59;;;20.16;40.56
69911;BME280;63555;49.920;17.868;2023-05-13T13:15:49;99131.41;;;20.32;40.74
69911;BME280;63555;49.920;17.868;2023-05-13T13:20:49;99134.03;;;20.73;40.24
69911;BME280;63555;49.920;17.868;2023-05-13T13:25:50;99128.00;;;20.87;39.93
69911;BME280;63555;49.920;17.868;2023-05-13T13:30:51;99122.59;;;20.95;40.15
69911;BME280;63555;49.920;17.868;2023-05-13T13:35:51;99125.47;;;20.93;38.96
69911;BME280;63555;49.920;17.868;2023-05-13T13:40:51;99125.78;;;20.98;39.64
69911;BME280;63555;49.920;17.868;2023-05-13T13:45:52;99120.94;;;20.94;39.43
69911;BME280;63555;49.920;17.868;2023-05-13T13:50:52;99119.78;;;20.80;39.40
69911;BME280;63555;49.920;17.868;2023-05-13T13:55:54;99112.63;;;20.64;39.33
69911;BME280;63555;49.920;17.868;2023-05-13T14:00:54;99113.50;;;20.49;39.53
69911;BME280;63555;49.920;17.868;2023-05-13T14:05:54;99118.69;;;20.26;39.68
69911;BME280;63555;49.920;17.868;2023-05-13T14:10:55;99110.34;;;20.13;39.81
69911;BME280;63555;49.920;17.868;2023-05-13T14:15:56;99115.03;;;19.94;40.23
69911;BME280;63555;49.920;17.868;2023-05-13T14:20:57;99108.28;;;19.66;40.39
69911;BME280;63555;49.920;17.868;2023-05-13T14:25:57;99114.84;;;19.29;40.44
69911;BME280;63555;49.920;17.868;2023-05-13T14:30:58;99113.03;;;18.96;40.87
69911;BME280;63555;49.920;17.868;2023-05-13T14:35:58;99104.72;;;18.65;40.96
69911;BME280;63555;49.920;17.868;2023-05-13T14:41:01;99106.88;;;18.43;41.52
69911;BME280;63555;49.920;17.868;2023-05-13T14:46:02;99107.41;;;18.21;41.86
69911;BME280;63555;49.920;17.868;2023-05-13T14:51:02;99107.72;;;18.00;42.38
69911;BME280;63555;49.920;17.868;2023-05-13T14:56:04;99098.38;;;17.78;42.45
69911;BME280;63555;49.920;17.868;2023-05-13T15:01:04;99107.72;;;17.65;43.03
69911;BME280;63555;49.920;17.868;2023-05-13T15:06:05;99102.75;;;17.52;43.38
69911;BME280;63555;49.920;17.868;2023-05-13T15:11:06;99107.63;;;17.39;43.52
69911;BME280;63555;49.920;17.868;2023-05-13T15:16:06;99104.00;;;17.30;43.72
69911;BME280;63555;49.920;17.868;2023-05-13T15:21:07;99102.94;;;17.23;43.83
69911;BME280;63555;49.920;17.868;2023-05-13T15:26:07;99097.66;;;17.13;44.09
69911;BME280;63555;49.920;17.868;2023-05-13T15:31:07;99100.09;;;17.07;44.36
69911;BME280;63555;49.920;17.868;2023-05-13T15:36:07;99100.53;;;17.02;44.39
69911;BME280;63555;49.920;17.868;2023-05-13T15:41:09;99102.34;;;17.02;44.39
69911;BME280;63555;49.920;17.868;2023-05-13T15:46:09;99097.56;;;17.05;44.28
69911;BME280;63555;49.920;17.868;2023-05-13T15:51:09;99090.09;;;17.09;44.48
69911;BME280;63555;49.920;17.868;2023-05-13T15:56:10;99080.81;;;17.13;44.64
69911;BME280;63555;49.920;17.868;2023-05-13T16:01:10;99085.72;;;17.17;45.21
69911;BME280;63555;49.920;17.868;2023-05-13T16:06:10;99084.13;;;17.25;45.78
69911;BME280;63555;49.920;17.868;2023-05-13T16:11:11;99079.19;;;17.30;45.72
69911;BME280;63555;49.920;17.868;2023-05-13T16:16:12;99076.34;;;17.31;46.14
69911;BME280;63555;49.920;17.868;2023-05-13T16:21:12;99069.03;;;17.33;46.90
69911;BME280;63555;49.920;17.868;2023-05-13T16:26:13;99063.28;;;17.38;47.17
69911;BME280;63555;49.920;17.868;2023-05-13T16:37:02;99061.31;;;17.40;47.85
69911;BME280;63555;49.920;17.868;2023-05-13T16:42:08;99054.59;;;17.36;48.23
69911;BME280;63555;49.920;17.868;2023-05-13T16:47:08;99057.31;;;17.26;48.07
69911;BME280;63555;49.920;17.868;2023-05-13T16:57:58;99049.00;;;17.11;48.55
69911;BME280;63555;49.920;17.868;2023-05-13T17:03:00;99048.63;;;17.06;48.55
69911;BME280;63555;49.920;17.868;2023-05-13T17:08:01;99053.69;;;17.00;49.21
69911;BME280;63555;49.920;17.868;2023-05-13T17:13:02;99056.41;;;16.90;49.57
69911;BME280;63555;49.920;17.868;2023-05-13T17:18:03;99059.72;;;16.74;50.09
69911;BME280;63555;49.920;17.868;2023-05-13T17:23:03;99061.16;;;16.59;50.39
69911;BME280;63555;49.920;17.868;2023-05-13T17:28:04;99058.41;;;16.41;50.54
69911;BME280;63555;49.920;17.868;2023-05-13T17:33:07;99062.38;;;16.28;50.87
69911;BME280;63555;49.920;17.868;2023-05-13T17:38:07;99067.47;;;16.11;51.17
69911;BME280;63555;49.920;17.868;2023-05-13T17:43:07;99067.91;;;15.97;51.75
69911;BME280;63555;49.920;17.868;2023-05-13T17:48:08;99064.72;;;15.84;52.21
69911;BME280;63555;49.920;17.868;2023-05-13T17:53:08;99065.97;;;15.70;53.14
69911;BME280;63555;49.920;17.868;2023-05-13T17:58:09;99070.97;;;15.54;53.93
69911;BME280;63555;49.920;17.868;2023-05-13T18:03:09;99072.34;;;15.39;54.53
69911;BME280;63555;49.920;17.868;2023-05-13T18:08:09;99066.59;;;15.24;54.68
69911;BME280;63555;49.920;17.868;2023-05-13T18:13:10;99073.03;;;15.12;55.29
69911;BME280;63555;49.920;17.868;2023-05-13T18:18:10;99085.56;;;15.00;55.64
69911;BME280;63555;49.920;17.868;2023-05-13T18:23:11;99083.31;;;14.86;56.11
69911;BME280;63555;49.920;17.868;2023-05-13T18:28:11;99083.50;;;14.73;56.44
69911;BME280;63555;49.920;17.868;2023-05-13T18:33:11;99082.91;;;14.60;56.95
69911;BME280;63555;49.920;17.868;2023-05-13T18:38:12;99078.09;;;14.44;57.45
69911;BME280;63555;49.920;17.868;2023-05-13T18:43:12;99089.16;;;14.28;58.04
69911;BME280;63555;49.920;17.868;2023-05-13T18:48:13;99083.47;;;14.12;58.41
69911;BME280;63555;49.920;17.868;2023-05-13T18:53:13;99078.38;;;13.99;59.06
69911;BME280;63555;49.920;17.868;2023-05-13T18:58:13;99092.53;;;13.89;59.54
69911;BME280;63555;49.920;17.868;2023-05-13T19:03:14;99096.19;;;13.77;59.91
69911;BME280;63555;49.920;17.868;2023-05-13T19:08:14;99093.44;;;13.67;60.48
69911;BME280;63555;49.920;17.868;2023-05-13T19:13:14;99100.34;;;13.58;60.74
69911;BME280;63555;49.920;17.868;2023-05-13T19:18:18;99101.13;;;13.49;61.13
69911;BME280;63555;49.920;17.868;2023-05-13T19:23:19;99109.81;;;13.40;61.29
69911;BME280;63555;49.920;17.868;2023-05-13T19:28:20;99102.38;;;13.34;62.19
69911;BME280;63555;49.920;17.868;2023-05-13T19:33:20;99103.00;;;13.26;62.21
69911;BME280;63555;49.920;17.868;2023-05-13T19:38:21;99107.22;;;13.18;62.29
69911;BME280;63555;49.920;17.868;2023-05-13T19:43:23;99107.22;;;13.06;62.49
69911;BME280;63555;49.920;17.868;2023-05-13T19:48:23;99106.00;;;12.99;63.06
69911;BME280;63555;49.920;17.868;2023-05-13T19:53:24;99101.91;;;12.95;62.98
69911;BME280;63555;49.920;17.868;2023-05-13T19:58:25;99097.81;;;12.91;63.34
69911;BME280;63555;49.920;17.868;2023-05-13T20:03:27;99090.25;;;12.87;63.86
69911;BME280;63555;49.920;17.868;2023-05-13T20:08:28;99103.00;;;12.82;63.83
69911;BME280;63555;49.920;17.868;2023-05-13T20:13:30;99102.78;;;12.73;64.34
69911;BME280;63555;49.920;17.868;2023-05-13T20:18:31;99095.19;;;12.69;64.62
69911;BME280;63555;49.920;17.868;2023-05-13T20:23:32;99097.38;;;12.64;64.90
69911;BME280;63555;49.920;17.868;2023-05-13T20:28:32;99095.44;;;12.55;64.89
69911;BME280;63555;49.920;17.868;2023-05-13T20:33:32;99093.53;;;12.46;65.33
69911;BME280;63555;49.920;17.868;2023-05-13T20:38:33;99088.72;;;12.39;65.49
69911;BME280;63555;49.920;17.868;2023-05-13T20:43:34;99085.22;;;12.28;65.63
69911;BME280;63555;49.920;17.868;2023-05-13T20:48:35;99085.69;;;12.22;66.46
69911;BME280;63555;49.920;17.868;2023-05-13T20:53:36;99089.75;;;12.15;66.32
69911;BME280;63555;49.920;17.868;2023-05-13T20:58:36;99099.94;;;12.08;66.71
69911;BME280;63555;49.920;17.868;2023-05-13T21:03:36;99092.59;;;12.00;67.24
69911;BME280;63555;49.920;17.868;2023-05-13T21:08:37;99086.81;;;11.95;67.36
69911;BME280;63555;49.920;17.868;2023-05-13T21:13:39;99083.91;;;11.87;67.60
69911;BME280;63555;49.920;17.868;2023-05-13T21:18:39;99091.56;;;11.79;67.70
69911;BME280;63555;49.920;17.868;2023-05-13T21:23:40;99097.63;;;11.68;68.42
69911;BME280;63555;49.920;17.868;2023-05-13T21:28:43;99093.41;;;11.66;68.40
69911;BME280;63555;49.920;17.868;2023-05-13T21:33:43;99091.13;;;11.61;68.63
69911;BME280;63555;49.920;17.868;2023-05-13T21:38:43;99088.59;;;11.60;68.84
69911;BME280;63555;49.920;17.868;2023-05-13T21:43:44;99091.59;;;11.55;68.83
69911;BME280;63555;49.920;17.868;2023-05-13T21:48:46;99086.97;;;11.46;68.78
69911;BME280;63555;49.920;17.868;2023-05-13T21:53:47;99090.41;;;11.35;69.35
69911;BME280;63555;49.920;17.868;2023-05-13T21:58:48;99083.06;;;11.28;69.20
69911;BME280;63555;49.920;17.868;2023-05-13T22:03:48;99082.28;;;11.26;69.52
69911;BME280;63555;49.920;17.868;2023-05-13T22:08:49;99085.78;;;11.26;69.46
69911;BME280;63555;49.920;17.868;2023-05-13T22:13:49;99088.53;;;11.25;69.05
69911;BME280;63555;49.920;17.868;2023-05-13T22:18:50;99097.28;;;11.25;69.40
69911;BME280;63555;49.920;17.868;2023-05-13T22:23:50;99087.69;;;11.24;69.17
69911;BME280;63555;49.920;17.868;2023-05-13T22:28:51;99081.56;;;11.24;69.53
69911;BME280;63555;49.920;17.868;2023-05-13T22:33:51;99078.19;;;11.22;69.46
69911;BME280;63555;49.920;17.868;2023-05-13T22:38:53;99079.25;;;11.19;69.39
69911;BME280;63555;49.920;17.868;2023-05-13T22:43:53;99078.88;;;11.12;69.41
69911;BME280;63555;49.920;17.868;2023-05-13T22:48:54;99072.84;;;11.10;69.54
69911;BME280;63555;49.920;17.868;2023-05-13T22:53:54;99074.16;;;11.05;69.56
69911;BME280;63555;49.920;17.868;2023-05-13T22:58:54;99067.63;;;10.98;69.82
69911;BME280;63555;49.920;17.868;2023-05-13T23:03:55;99059.81;;;10.96;70.13
69911;BME280;63555;49.920;17.868;2023-05-13T23:08:56;99064.25;;;10.96;69.91
69911;BME280;63555;49.920;17.868;2023-05-13T23:13:56;99072.19;;;10.96;70.12
69911;BME280;63555;49.920;17.868;2023-05-13T23:18:57;99072.06;;;10.97;70.40
69911;BME280;63555;49.920;17.868;2023-05-13T23:23:57;99071.34;;;10.95;70.37
69911;BME280;63555;49.920;17.868;2023-05-13T23:28:57;99071.44;;;10.94;70.52
69911;BME280;63555;49.920;17.868;2023-05-13T23:33:57;99067.63;;;10.98;70.17
69911;BME280;63555;49.920;17.868;2023-05-13T23:38:58;99065.59;;;11.01;70.39
69911;BME280;63555;49.920;17.868;2023-05-13T23:43:58;99062.00;;;11.02;70.39
69911;BME280;63555;49.920;17.868;2023-05-13T23:48:58;99058.53;;;11.02;70.22
69911;BME280;63555;49.920;17.868;2023-05-13T23:53:59;99051.47;;;11.02;70.48
69911;BME280;63555;49.920;17.868;2023-05-13T23:58:59;99046.19;;;11.02;70.26
